Disclaimer

Please do not use the information listed here in-flight or in-navigation, as they are not provided to us by the airports but are provided by volunteers, so they might be outdated.

Search


Regions


Airport information page

Radio informations:
Tower (TWR) - 118.3 MHz
A/G VOICE RDO - 5634 MHz

Airport informations:
Latitude: 18° 06' 34.26" S
Longitude: 049° 23' 33.13" E
Elevation: 22 feet - 7 meters
Operating hours: Remarks
Operating agency: Civil government, landing fees and diplomatic clearance may be required
Timezone: UTC+3
Fuel: Jet A1, without icing nhibitor.

100/130 MIL Spec, low lead, aviation gasoline (BLUE)

Runway information:
01/19 - 7218 x 131 feet< - >2200 x 40 meters

Recent METARs:
FMMT 130200Z 10006KT 9999 SCT017 27/24 Q1015
FMMT 130300Z 09005KT 050V130 9999 VCSH BKN015TCU 28/25 Q1016 NOSIG
FMMT 130300Z 09005KT 050V130 9999 VCSH BKN015TCU 28/25 Q1016 NOSIG

Airport on the map: